Time;durP1;ratioP1;P1;durP2;ratioP2;P2;SDS_P1;SDS_P2;PMS_P1;PMS_P2;Temp;Humidity;BMP_temperature;BMP_pressure;BME280_temperature;BME280_humidity;BME280_pressure;Samples;Min_cycle;Max_cycle;Signal;HPM_P1;HPM_P2
2021/11/07 00:00:23;;;;;;;71.27;22.97;;;1.70;99.90;;;-0.02;100.00;98771.25;5049680;28;20480;-79
2021/11/07 00:02:58;;;;;;;48.80;21.53;;;1.70;99.90;;;-0.01;100.00;98762.28;5047132;28;20477;-79
2021/11/07 00:05:28;;;;;;;64.30;22.17;;;1.60;99.90;;;-0.10;100.00;98746.28;5037973;28;20485;-80
2021/11/07 00:08:08;;;;;;;45.80;20.23;;;1.60;99.90;;;-0.17;100.00;98722.06;5055576;28;20520;-79
2021/11/07 00:10:40;;;;;;;57.57;20.43;;;1.60;99.90;;;-0.20;100.00;98687.78;5053497;28;20457;-78
2021/11/07 00:13:15;;;;;;;51.03;21.17;;;1.60;99.90;;;-0.07;100.00;98732.75;5053914;28;20523;-78
2021/11/07 00:15:43;;;;;;;52.60;21.90;;;1.60;99.90;;;-0.30;100.00;98677.09;5062954;28;20454;-78
2021/11/07 00:18:14;;;;;;;61.80;23.40;;;1.60;99.90;;;-0.13;100.00;98709.34;5049780;28;20493;-78
2021/11/07 00:20:50;;;;;;;58.70;22.90;;;1.60;99.90;;;-0.11;100.00;98696.78;5050203;28;20469;-78
2021/11/07 00:23:28;;;;;;;62.77;22.80;;;1.50;99.90;;;-0.08;100.00;98694.69;5065823;28;20469;-78
2021/11/07 00:25:59;;;;;;;54.07;23.07;;;1.60;99.90;;;-0.16;100.00;98695.34;5048495;28;20442;-77
2021/11/07 00:28:33;;;;;;;70.67;23.90;;;1.50;99.90;;;-0.12;100.00;98665.88;5045443;28;20468;-77
2021/11/07 00:31:07;;;;;;;59.57;21.60;;;1.60;99.90;;;0.03;100.00;98687.63;5050365;28;20456;-77
2021/11/07 00:33:51;;;;;;;72.00;24.27;;;1.70;99.90;;;0.02;100.00;98713.38;5052623;28;21066;-79
2021/11/07 00:36:24;;;;;;;60.33;22.13;;;1.70;99.90;;;0.08;100.00;98722.63;5053173;28;20963;-78
2021/11/07 00:38:56;;;;;;;44.50;20.67;;;1.70;99.90;;;0.04;100.00;98721.19;5048330;28;20466;-77
2021/11/07 00:41:30;;;;;;;45.60;22.60;;;1.70;99.90;;;0.09;100.00;98722.50;5052840;28;20540;-78
2021/11/07 00:44:00;;;;;;;42.70;20.50;;;1.70;99.90;;;0.09;100.00;98719.81;5046894;28;20493;-78
2021/11/07 00:46:31;;;;;;;55.87;24.77;;;1.70;99.90;;;0.14;100.00;98732.72;5048833;28;20461;-79
2021/11/07 00:49:03;;;;;;;49.83;22.00;;;1.80;99.90;;;-0.07;100.00;98661.84;5049782;28;20476;-77
2021/11/07 00:51:33;;;;;;;46.03;22.70;;;1.90;99.90;;;0.20;100.00;98713.59;5050779;28;20462;-78
2021/11/07 00:54:09;;;;;;;48.97;23.33;;;1.80;99.90;;;0.18;100.00;98712.06;5057534;28;20465;-78
2021/11/07 00:56:41;;;;;;;43.40;21.90;;;1.80;99.90;;;0.27;100.00;98717.41;5056942;28;20454;-78
2021/11/07 00:59:15;;;;;;;44.53;23.50;;;1.90;99.90;;;0.34;100.00;98716.88;5074286;28;20465;-78
2021/11/07 01:01:49;;;;;;;45.67;22.90;;;1.90;99.90;;;0.33;100.00;98704.56;5054399;28;20453;-78
2021/11/07 01:04:17;;;;;;;43.37;22.17;;;2.00;99.90;;;0.42;100.00;98715.22;5059863;28;20480;-78
2021/11/07 01:06:45;;;;;;;46.77;23.43;;;2.00;99.90;;;0.33;100.00;98713.38;5040669;28;20468;-78
2021/11/07 01:09:14;;;;;;;44.00;23.23;;;1.90;99.90;;;0.39;100.00;98709.38;5055742;28;20526;-78
2021/11/07 01:11:41;;;;;;;48.97;24.60;;;2.00;99.90;;;0.46;100.00;98704.34;5046135;28;20534;-77
2021/11/07 01:14:11;;;;;;;40.77;22.43;;;2.10;99.90;;;0.37;100.00;98700.66;5052724;28;20826;-77
2021/11/07 01:16:39;;;;;;;46.63;24.00;;;2.00;99.90;;;0.31;100.00;98702.06;5068963;28;20864;-78
2021/11/07 01:19:06;;;;;;;42.80;24.50;;;2.00;99.90;;;0.30;100.00;98689.72;5063224;28;21017;-78
2021/11/07 01:21:38;;;;;;;42.33;23.93;;;1.90;99.90;;;0.25;100.00;98682.16;5067600;28;20513;-77
2021/11/07 01:24:09;;;;;;;38.10;21.77;;;2.00;99.90;;;0.33;100.00;98649.59;5046866;28;20470;-78
2021/11/07 01:26:39;;;;;;;43.03;24.00;;;2.00;99.90;;;0.33;100.00;98640.75;5053117;28;20860;-77
2021/11/07 01:29:12;;;;;;;41.37;23.30;;;2.00;99.90;;;0.46;100.00;98662.63;5048193;28;20481;-78
2021/11/07 01:31:39;;;;;;;44.27;22.33;;;2.00;99.90;;;0.48;100.00;98671.31;5050781;28;20473;-77
2021/11/07 01:34:12;;;;;;;39.30;23.93;;;2.10;99.90;;;0.52;100.00;98678.03;5057852;28;20461;-78
2021/11/07 01:36:45;;;;;;;38.90;24.10;;;2.10;99.90;;;0.48;100.00;98689.94;5035998;28;20462;-77
2021/11/07 01:39:17;;;;;;;36.77;22.07;;;2.10;99.90;;;0.55;100.00;98687.56;5052881;28;20544;-77
2021/11/07 01:41:58;;;;;;;37.73;23.60;;;2.10;99.90;;;0.56;100.00;98676.81;5050516;28;20453;-77
2021/11/07 01:44:26;;;;;;;37.50;22.50;;;2.20;99.90;;;0.53;100.00;98669.13;5056797;28;20496;-76
2021/11/07 01:46:56;;;;;;;38.20;22.00;;;2.20;99.90;;;0.54;100.00;98665.47;5053978;28;20503;-78
2021/11/07 01:49:26;;;;;;;36.57;21.57;;;2.20;99.90;;;0.61;100.00;98672.91;5055668;28;20468;-77
2021/11/07 01:52:00;;;;;;;34.70;21.03;;;2.20;99.90;;;0.65;100.00;98674.31;5052465;28;20478;-77
2021/11/07 01:54:31;;;;;;;35.13;22.10;;;2.30;99.90;;;-0.24;100.00;98516.34;5053229;28;20477;-77
2021/11/07 01:56:58;;;;;;;37.00;21.60;;;2.20;99.90;;;0.63;100.00;98658.50;5053049;28;20536;-76
2021/11/07 01:59:25;;;;;;;37.60;22.27;;;2.30;99.90;;;0.72;100.00;98656.84;5045409;28;20478;-77
2021/11/07 02:01:57;;;;;;;36.20;22.27;;;2.30;99.90;;;0.74;100.00;98651.34;5053354;28;20542;-78
2021/11/07 02:04:24;;;;;;;33.53;21.73;;;2.30;99.80;;;0.65;100.00;98639.72;5049249;28;20470;-77
2021/11/07 02:06:52;;;;;;;35.33;20.87;;;2.30;99.90;;;0.58;100.00;98622.66;5038349;28;20481;-79
2021/11/07 02:09:20;;;;;;;33.67;20.50;;;2.20;99.20;;;0.49;100.00;98617.16;5056307;28;20490;-77
2021/11/07 02:11:47;;;;;;;35.37;21.27;;;2.20;99.50;;;0.63;100.00;98588.50;5055449;28;20519;-77
2021/11/07 02:14:15;;;;;;;33.67;21.60;;;2.30;99.60;;;0.34;100.00;98552.91;5054992;28;20457;-78
2021/11/07 02:16:42;;;;;;;31.40;21.43;;;2.20;98.70;;;0.61;100.00;98572.69;5053702;28;20481;-77
2021/11/07 02:19:14;;;;;;;32.70;20.73;;;2.20;99.40;;;0.45;100.00;98554.59;5059937;28;20531;-78
2021/11/07 02:21:45;;;;;;;31.27;21.00;;;2.20;99.80;;;0.58;100.00;98559.63;5059997;28;20464;-79
2021/11/07 02:24:15;;;;;;;36.53;21.33;;;2.20;99.90;;;0.58;100.00;98540.19;5061170;28;20462;-79
2021/11/07 02:26:44;;;;;;;38.67;21.50;;;2.20;99.90;;;0.54;100.00;98537.81;5064627;28;20951;-79
2021/11/07 02:29:11;;;;;;;31.90;21.50;;;2.20;99.90;;;0.54;100.00;98542.28;5066159;28;20879;-79
2021/11/07 02:31:38;;;;;;;39.50;23.47;;;2.20;99.90;;;0.59;100.00;98547.19;5065736;28;20458;-79
2021/11/07 02:34:05;;;;;;;32.93;20.10;;;2.20;99.60;;;0.67;100.00;98565.94;5070410;28;20478;-79
2021/11/07 02:36:33;;;;;;;32.90;19.80;;;2.30;99.00;;;0.70;100.00;98590.47;5070705;28;20446;-79
2021/11/07 02:39:06;;;;;;;33.30;20.93;;;2.30;97.20;;;0.71;100.00;98591.31;5059509;28;20481;-80
2021/11/07 02:41:33;;;;;;;30.13;18.40;;;2.30;97.50;;;0.74;100.00;98583.06;5070426;28;20462;-79
2021/11/07 02:44:00;;;;;;;31.93;21.53;;;2.40;96.80;;;0.79;100.00;98572.81;5055623;28;20470;-79
2021/11/07 02:46:27;;;;;;;32.67;19.30;;;2.40;96.70;;;0.77;100.00;98574.78;5084005;28;20485;-80
2021/11/07 02:48:58;;;;;;;31.37;19.03;;;2.40;96.50;;;0.77;100.00;98574.78;5063863;28;20795;-79
2021/11/07 02:51:28;;;;;;;33.60;21.13;;;2.40;96.90;;;0.76;100.00;98574.91;5075812;28;20474;-80
2021/11/07 02:53:55;;;;;;;36.03;20.67;;;2.40;96.80;;;0.86;100.00;98572.28;5063665;28;20453;-78
2021/11/07 02:56:24;;;;;;;35.60;21.90;;;2.50;96.90;;;0.87;100.00;98563.31;5063004;28;20484;-78
2021/11/07 02:58:51;;;;;;;35.00;21.13;;;2.50;97.30;;;0.87;100.00;98579.28;5063928;28;20454;-78
2021/11/07 03:01:21;;;;;;;37.60;22.43;;;2.50;97.40;;;0.79;100.00;98575.47;5059629;28;20873;-78
2021/11/07 03:03:49;;;;;;;35.53;22.00;;;2.50;97.10;;;1.02;100.00;98580.53;5075214;28;20485;-77
2021/11/07 03:06:16;;;;;;;41.33;22.63;;;2.60;97.80;;;1.07;100.00;98574.81;5060910;28;20472;-78
2021/11/07 03:08:49;;;;;;;34.00;21.57;;;2.70;96.50;;;1.08;100.00;98593.28;5061163;28;20495;-77
2021/11/07 03:11:17;;;;;;;37.90;22.10;;;2.60;96.70;;;1.23;100.00;98600.84;5059580;28;20493;-78
2021/11/07 03:13:46;;;;;;;38.97;23.40;;;2.70;96.90;;;1.17;99.69;98590.75;5063860;28;20525;-78
2021/11/07 03:16:15;;;;;;;38.53;21.67;;;2.80;95.90;;;1.23;99.53;98590.19;5050210;28;20454;-77
2021/11/07 03:18:43;;;;;;;39.93;23.47;;;2.80;95.50;;;1.16;99.55;98583.75;5058823;28;20481;-78
2021/11/07 03:21:13;;;;;;;36.77;23.70;;;2.80;95.40;;;1.08;99.86;98582.63;5062459;28;20526;-78
2021/11/07 03:23:48;;;;;;;36.63;23.50;;;2.70;95.70;;;1.07;100.00;98574.81;5059945;28;20469;-77
2021/11/07 03:26:16;;;;;;;37.40;24.00;;;2.70;96.00;;;1.08;100.00;98579.97;5053617;28;20477;-77
2021/11/07 03:28:46;;;;;;;38.90;20.90;;;2.70;96.40;;;1.09;100.00;98572.84;5056013;28;20457;-79
2021/11/07 03:31:16;;;;;;;38.60;21.67;;;2.70;96.70;;;1.06;100.00;98579.28;5055177;28;20537;-79
2021/11/07 03:33:45;;;;;;;38.67;21.80;;;2.70;97.20;;;1.04;100.00;98586.56;5055690;28;20454;-78
2021/11/07 03:36:17;;;;;;;34.90;22.43;;;2.60;98.20;;;0.98;100.00;98571.13;5053935;28;20470;-79
2021/11/07 03:38:45;;;;;;;36.67;21.93;;;2.60;98.50;;;0.94;100.00;98559.97;5060738;28;20800;-79
2021/11/07 03:41:13;;;;;;;38.73;23.43;;;2.60;98.40;;;0.98;100.00;98568.47;5064456;28;20466;-79
2021/11/07 03:43:41;;;;;;;40.03;23.83;;;2.60;98.40;;;1.01;100.00;98576.22;5067847;28;20473;-79
2021/11/07 03:46:11;;;;;;;43.30;24.17;;;2.60;98.80;;;0.98;100.00;98563.16;5058739;28;20448;-78
2021/11/07 03:48:40;;;;;;;42.37;24.33;;;2.60;98.10;;;1.02;100.00;98579.69;5055666;28;20503;-78
2021/11/07 03:51:12;;;;;;;40.30;23.07;;;2.60;97.70;;;1.02;100.00;98575.22;5060768;28;20458;-78
2021/11/07 03:53:40;;;;;;;42.93;23.57;;;2.60;98.70;;;1.04;100.00;98564.41;5053899;28;21020;-78
2021/11/07 03:56:07;;;;;;;48.80;25.97;;;2.60;99.50;;;0.91;100.00;98543.44;5050436;28;20500;-78
2021/11/07 03:58:34;;;;;;;45.57;24.47;;;2.60;99.90;;;1.01;100.00;98554.91;5063731;28;20512;-78
2021/11/07 04:01:01;;;;;;;45.43;23.70;;;2.60;99.90;;;0.81;100.00;98517.66;5045419;28;20588;-78
2021/11/07 04:03:30;;;;;;;51.93;27.20;;;2.60;99.90;;;1.04;100.00;98532.47;5049518;28;21052;-79
2021/11/07 04:05:57;;;;;;;44.23;24.30;;;2.70;99.90;;;1.10;100.00;98524.78;5048998;28;20458;-78
2021/11/07 04:08:24;;;;;;;46.33;24.00;;;2.70;99.90;;;1.22;100.00;98522.81;5051093;28;20450;-78
2021/11/07 04:10:51;;;;;;;48.47;25.80;;;2.80;99.90;;;1.20;100.00;98513.28;5046047;28;20534;-79
2021/11/07 04:13:19;;;;;;;45.83;24.80;;;2.80;99.90;;;1.23;100.00;98512.97;5066404;28;20921;-79
2021/11/07 04:15:46;;;;;;;44.30;24.33;;;2.80;99.70;;;1.36;100.00;98510.84;5051275;28;20442;-79
2021/11/07 04:18:14;;;;;;;41.73;23.40;;;2.90;98.70;;;1.40;100.00;98503.44;5050967;28;20450;-79
2021/11/07 04:20:42;;;;;;;39.27;23.53;;;3.00;97.90;;;1.47;100.00;98517.00;5032184;28;20457;-79
2021/11/07 04:23:10;;;;;;;40.93;23.20;;;3.00;98.10;;;1.53;100.00;98516.41;5048794;28;20454;-79
2021/11/07 04:25:37;;;;;;;39.23;22.57;;;3.00;97.60;;;1.53;100.00;98513.75;5069007;28;20458;-78
2021/11/07 04:28:04;;;;;;;39.63;23.43;;;3.10;97.20;;;1.52;100.00;98493.44;5051501;28;20478;-78
2021/11/07 04:30:31;;;;;;;39.37;22.77;;;3.10;97.30;;;1.56;99.83;98500.13;5051688;28;20481;-78
2021/11/07 04:32:58;;;;;;;42.80;23.90;;;3.10;96.50;;;1.68;99.86;98501.63;5069337;28;20485;-78
2021/11/07 04:35:25;;;;;;;37.60;21.93;;;3.20;96.40;;;1.52;99.58;98483.63;5053867;28;20479;-79
2021/11/07 04:37:54;;;;;;;39.77;23.83;;;3.20;95.90;;;1.56;99.97;98486.81;5048573;28;20552;-78
2021/11/07 04:40:24;;;;;;;41.40;23.40;;;3.20;95.80;;;1.47;100.00;98485.03;5048153;28;20458;-78
2021/11/07 04:42:52;;;;;;;41.80;24.00;;;3.10;96.40;;;1.47;100.00;98477.88;5045269;28;21003;-79
2021/11/07 04:45:19;;;;;;;38.67;23.20;;;3.10;96.80;;;1.32;100.00;98460.69;5051183;28;20985;-78
2021/11/07 04:47:47;;;;;;;44.20;24.53;;;3.00;98.30;;;1.29;100.00;98456.53;5053694;28;20552;-77
2021/11/07 04:50:17;;;;;;;46.27;23.83;;;2.90;99.50;;;1.26;100.00;98440.81;5056221;28;20454;-79
2021/11/07 04:52:45;;;;;;;45.90;24.63;;;2.90;99.90;;;1.25;100.00;98452.44;5053960;28;20561;-77
2021/11/07 04:55:16;;;;;;;44.50;25.20;;;2.80;99.90;;;1.09;100.00;98437.09;5046508;28;20461;-78
2021/11/07 04:57:43;;;;;;;47.50;25.17;;;2.80;99.90;;;1.20;100.00;98457.38;5050836;28;20453;-77
2021/11/07 05:00:16;;;;;;;43.40;25.03;;;2.80;99.90;;;1.21;100.00;98454.56;5044921;28;20896;-79
2021/11/07 05:02:43;;;;;;;43.77;24.70;;;2.80;99.90;;;1.16;100.00;98456.00;5032691;28;20575;-78
2021/11/07 05:05:11;;;;;;;42.20;24.47;;;2.80;99.90;;;1.26;100.00;98451.47;5031870;28;20481;-77
2021/11/07 05:07:38;;;;;;;45.27;24.40;;;2.80;99.90;;;1.23;100.00;98457.09;5050500;28;20544;-78
2021/11/07 05:10:07;;;;;;;46.03;23.90;;;2.80;99.90;;;1.23;100.00;98441.09;5048909;28;20485;-78
2021/11/07 05:12:35;;;;;;;43.53;23.40;;;2.80;99.90;;;1.19;100.00;98423.75;5066270;28;20529;-77
2021/11/07 05:15:03;;;;;;;47.03;24.73;;;2.80;99.90;;;1.21;100.00;98437.75;5049379;28;20458;-77
2021/11/07 05:17:30;;;;;;;47.33;25.87;;;2.80;99.90;;;1.22;100.00;98423.47;5058087;28;20485;-77
2021/11/07 05:19:57;;;;;;;51.03;26.90;;;2.80;99.90;;;1.25;100.00;98417.84;5055194;28;20521;-79
2021/11/07 05:22:24;;;;;;;55.23;27.30;;;2.80;99.90;;;1.24;100.00;98408.19;5052259;28;20555;-78
2021/11/07 05:24:52;;;;;;;44.50;24.57;;;2.80;99.90;;;1.18;100.00;98403.44;5066951;28;20466;-78
2021/11/07 05:27:19;;;;;;;45.73;23.67;;;2.80;99.90;;;1.13;100.00;98394.06;5043551;28;20463;-78
2021/11/07 05:29:47;;;;;;;47.07;24.40;;;2.70;99.90;;;1.18;100.00;98400.78;5051215;28;20493;-78
2021/11/07 05:32:14;;;;;;;46.37;26.57;;;2.80;99.90;;;1.17;100.00;98393.78;5049672;28;20494;-78
2021/11/07 05:34:42;;;;;;;45.53;25.73;;;2.80;99.90;;;1.16;100.00;98400.09;5068492;28;20458;-78
2021/11/07 05:37:09;;;;;;;43.47;23.60;;;2.80;99.90;;;1.22;100.00;98403.00;5053996;28;20457;-79
2021/11/07 05:39:37;;;;;;;50.37;25.27;;;2.80;99.90;;;1.03;100.00;98377.31;5051104;28;20490;-80
2021/11/07 05:42:06;;;;;;;46.50;25.60;;;2.80;99.90;;;1.21;100.00;98401.31;5053108;28;20458;-79
2021/11/07 05:44:33;;;;;;;49.20;25.60;;;2.80;99.90;;;1.16;100.00;98402.75;5049419;28;20565;-79
2021/11/07 05:47:01;;;;;;;42.97;24.20;;;2.70;99.90;;;1.21;100.00;98405.81;5042338;28;20549;-79
2021/11/07 05:49:28;;;;;;;49.93;24.30;;;2.80;99.90;;;1.18;100.00;98400.78;5049903;28;20542;-79
2021/11/07 05:51:56;;;;;;;49.17;25.30;;;2.70;99.60;;;1.13;100.00;98409.19;5045433;28;20552;-78
2021/11/07 05:54:23;;;;;;;47.50;25.23;;;2.70;99.30;;;1.10;100.00;98402.34;5050893;28;20477;-78
2021/11/07 05:56:50;;;;;;;41.93;23.33;;;2.70;99.10;;;1.04;100.00;98386.97;5033736;28;21016;-78
2021/11/07 05:59:17;;;;;;;46.90;25.47;;;2.70;99.60;;;0.94;100.00;98384.34;5048038;28;20559;-78
2021/11/07 06:01:44;;;;;;;46.63;25.00;;;2.60;99.90;;;0.87;100.00;98371.75;5068442;28;20454;-77
2021/11/07 06:04:13;;;;;;;49.10;26.47;;;2.60;99.90;;;1.06;100.00;98392.97;5053484;28;20493;-78
2021/11/07 06:06:40;;;;;;;44.77;24.60;;;2.60;99.90;;;1.01;100.00;98386.41;5050943;28;20992;-78
2021/11/07 06:09:08;;;;;;;52.50;26.63;;;2.60;99.90;;;1.02;100.00;98386.28;5052966;28;20557;-78
2021/11/07 06:11:36;;;;;;;45.73;25.90;;;2.60;99.90;;;0.95;100.00;98386.00;5049866;28;20886;-77
2021/11/07 06:14:03;;;;;;;42.37;23.37;;;2.50;99.90;;;1.02;100.00;98380.94;5051117;28;20816;-78
2021/11/07 06:16:31;;;;;;;47.47;24.97;;;2.60;99.90;;;1.08;100.00;98380.34;5047290;28;20529;-78
2021/11/07 06:18:58;;;;;;;47.10;24.67;;;2.60;99.90;;;1.13;100.00;98372.75;5048630;28;20493;-78
2021/11/07 06:21:28;;;;;;;50.90;28.13;;;2.60;99.90;;;1.06;100.00;98377.00;5050598;28;21158;-78
2021/11/07 06:23:56;;;;;;;48.27;25.87;;;2.60;99.90;;;1.04;100.00;98372.81;5052900;28;20450;-78
2021/11/07 06:26:24;;;;;;;51.57;25.63;;;2.60;99.90;;;1.05;100.00;98364.69;5053305;28;20458;-79
2021/11/07 06:28:52;;;;;;;46.43;24.40;;;2.70;99.90;;;1.15;100.00;98364.63;5058437;28;20580;-78
2021/11/07 06:31:21;;;;;;;50.57;26.53;;;2.70;99.90;;;0.82;100.00;98311.81;5063793;28;20458;-78
2021/11/07 06:33:49;;;;;;;46.33;25.17;;;2.70;99.90;;;1.18;100.00;98366.19;5070137;28;20521;-78
2021/11/07 06:36:17;;;;;;;46.40;24.70;;;2.80;99.90;;;1.20;100.00;98373.00;5063724;28;20533;-80
2021/11/07 06:38:46;;;;;;;50.23;26.37;;;2.80;99.90;;;1.26;100.00;98376.91;5048969;28;21022;-74
2021/11/07 06:41:13;;;;;;;46.83;27.03;;;2.80;99.90;;;1.26;100.00;98360.94;5056392;28;20457;-77
2021/11/07 06:43:44;;;;;;;45.57;25.10;;;2.90;99.90;;;1.47;100.00;98374.00;5051784;28;20499;-77
2021/11/07 06:46:11;;;;;;;45.97;24.50;;;3.00;99.70;;;1.38;100.00;98374.91;5054214;28;20485;-78
2021/11/07 06:48:41;;;;;;;44.30;24.30;;;3.00;97.90;;;1.48;100.00;98385.53;5061476;28;20465;-78
2021/11/07 06:51:08;;;;;;;45.30;26.30;;;3.00;98.00;;;1.50;100.00;98380.88;5052951;28;20786;-78
2021/11/07 06:53:37;;;;;;;39.83;24.43;;;3.00;98.00;;;1.55;100.00;98365.28;5056812;28;20549;-79
2021/11/07 06:56:06;;;;;;;40.53;23.37;;;3.10;97.00;;;1.58;99.26;98364.97;5054408;28;20465;-79
2021/11/07 06:58:33;;;;;;;41.40;23.03;;;3.10;95.80;;;1.63;99.89;98362.72;5056013;28;20465;-78
2021/11/07 07:01:00;;;;;;;39.00;24.40;;;3.20;95.40;;;1.63;99.08;98357.41;5061766;28;20450;-78
2021/11/07 07:03:30;;;;;;;36.53;23.30;;;3.20;95.20;;;1.91;98.17;98370.69;5068360;28;20465;-79
2021/11/07 07:05:57;;;;;;;40.00;23.33;;;3.40;94.20;;;1.84;97.64;98366.94;5070029;28;20481;-79
2021/11/07 07:08:27;;;;;;;33.83;21.10;;;3.40;93.40;;;1.85;97.03;98347.28;5062851;28;20449;-78
2021/11/07 07:10:58;;;;;;;35.17;21.50;;;3.50;92.50;;;2.01;96.77;98357.28;5053144;28;20485;-78
2021/11/07 07:13:28;;;;;;;35.10;22.23;;;3.50;92.10;;;2.07;96.20;98371.81;5056583;28;21096;-78
2021/11/07 07:16:05;;;;;;;31.43;20.07;;;3.60;91.70;;;2.05;96.07;98371.16;5056074;28;20448;-78
2021/11/07 07:18:43;;;;;;;30.33;19.97;;;3.60;91.50;;;2.21;95.28;98349.97;5054687;28;20450;-78
2021/11/07 07:21:17;;;;;;;34.60;21.47;;;3.70;91.20;;;2.26;94.51;98353.00;5068064;28;20446;-78
2021/11/07 07:24:10;;;;;;;29.07;19.73;;;3.80;90.60;;;2.38;94.92;98371.44;5047861;28;20512;-78
2021/11/07 07:34:51;;;;;;;28.37;18.47;;;4.10;88.50;;;2.38;92.89;98320.75;5071753;28;20769;-78
2021/11/07 07:37:18;;;;;;;29.47;20.40;;;4.10;88.10;;;2.58;93.04;98333.88;5053803;28;21037;-76
2021/11/07 07:39:45;;;;;;;29.00;19.07;;;4.10;87.60;;;2.73;92.32;98329.66;5057425;28;20554;-76
2021/11/07 07:42:12;;;;;;;29.57;20.90;;;4.20;88.20;;;2.82;91.65;98319.84;5056654;28;20481;-77
2021/11/07 07:44:41;;;;;;;26.10;19.37;;;4.30;86.80;;;3.03;90.90;98322.13;5056416;28;20565;-75
2021/11/07 07:47:08;;;;;;;24.00;17.60;;;4.50;85.60;;;3.18;89.79;98310.84;5053308;28;20515;-75
2021/11/07 07:49:35;;;;;;;27.00;19.17;;;4.70;84.50;;;3.24;89.58;98328.91;5055793;28;20972;-77
2021/11/07 07:52:03;;;;;;;27.20;18.37;;;4.80;83.40;;;3.41;89.05;98324.47;5059336;28;20481;-78
2021/11/07 07:54:30;;;;;;;26.87;17.93;;;4.80;83.60;;;3.71;88.90;98308.00;5059951;28;20523;-77
2021/11/07 07:56:57;;;;;;;26.90;18.53;;;5.10;83.70;;;3.68;87.96;98314.53;5069039;28;20969;-79
2021/11/07 07:59:24;;;;;;;24.53;17.30;;;5.10;81.70;;;3.97;86.25;98298.00;5053344;28;20454;-78
2021/11/07 08:01:52;;;;;;;23.67;16.60;;;5.40;80.70;;;4.37;84.34;98306.19;5055338;28;20516;-76
2021/11/07 08:04:20;;;;;;;22.83;15.90;;;5.70;79.00;;;4.43;83.69;98302.00;5050008;28;21102;-76
2021/11/07 08:06:47;;;;;;;23.50;17.70;;;5.90;77.60;;;4.53;83.57;98316.06;5067815;28;20478;-80
2021/11/07 08:09:14;;;;;;;23.93;16.97;;;6.10;77.20;;;4.24;82.98;98255.88;5057377;28;20614;-81
2021/11/07 08:11:42;;;;;;;20.50;14.73;;;6.10;76.60;;;4.66;83.01;98298.66;5052394;28;20486;-80
2021/11/07 08:14:09;;;;;;;27.60;15.40;;;6.10;76.80;;;4.85;82.58;98318.81;5082117;28;20447;-80
2021/11/07 08:16:38;;;;;;;23.00;17.30;;;6.20;77.00;;;4.72;82.65;98299.81;5048515;28;20472;-79
2021/11/07 08:19:11;;;;;;;19.70;15.33;;;6.20;76.20;;;5.11;79.41;98274.91;5067111;28;20450;-81
2021/11/07 08:21:41;;;;;;;17.90;14.50;;;6.50;75.10;;;5.29;79.70;98300.59;5064640;28;20450;-81
2021/11/07 08:24:10;;;;;;;17.10;13.47;;;6.60;74.60;;;4.99;80.14;98284.31;5053275;28;20450;-80
2021/11/07 08:26:40;;;;;;;18.10;13.97;;;6.50;73.90;;;4.75;79.68;98283.41;5058252;28;20471;-79
2021/11/07 08:29:10;;;;;;;17.27;12.17;;;6.40;73.30;;;4.60;81.08;98307.34;5064578;28;20465;-79
2021/11/07 08:31:38;;;;;;;16.40;13.40;;;6.20;73.40;;;4.78;80.62;98294.59;5058938;28;20965;-79
2021/11/07 08:34:08;;;;;;;15.60;12.87;;;6.20;73.70;;;4.72;79.51;98289.91;5062981;28;20461;-83
2021/11/07 08:36:40;;;;;;;14.77;11.73;;;6.30;73.10;;;4.68;80.25;98288.59;5080499;28;20447;-80
2021/11/07 08:39:15;;;;;;;17.10;12.57;;;6.20;73.30;;;5.12;77.83;98278.44;5070019;28;20456;-79
2021/11/07 08:41:48;;;;;;;15.77;11.37;;;6.40;72.40;;;5.35;76.98;98275.81;5059173;28;20941;-79
2021/11/07 09:01:22;;;;;;;15.93;11.97;;;6.50;71.00;;;4.88;78.29;98256.91;5068676;28;20447;-79
2021/11/07 09:03:54;;;;;;;16.23;12.07;;;6.50;70.90;;;4.43;79.35;98216.38;5032978;28;20484;-81
2021/11/07 09:06:36;;;;;;;17.90;14.57;;;6.30;71.20;;;4.48;79.62;98226.59;5071712;28;20483;-80
2021/11/07 09:09:09;;;;;;;16.40;13.20;;;6.30;71.30;;;4.93;78.78;98259.09;5053977;28;20477;-79
2021/11/07 09:11:36;;;;;;;19.03;13.10;;;6.30;72.00;;;4.74;79.17;98266.50;5059022;28;20473;-80
2021/11/07 09:14:06;;;;;;;17.00;13.50;;;6.20;71.90;;;4.68;80.14;98251.13;5040579;28;20469;-80
2021/11/07 09:16:35;;;;;;;15.20;12.33;;;6.20;72.60;;;4.81;79.34;98272.84;5050962;28;20563;-80
2021/11/07 09:19:04;;;;;;;16.50;12.43;;;6.20;72.50;;;4.87;78.62;98255.25;5052604;28;20445;-79
2021/11/07 09:21:38;;;;;;;18.27;12.70;;;6.40;71.40;;;4.93;78.44;98256.41;5072891;28;20791;-80
2021/11/07 09:24:10;;;;;;;16.10;12.53;;;6.30;71.50;;;4.94;77.88;98247.38;5074067;28;20525;-80
2021/11/07 09:26:41;;;;;;;15.80;12.77;;;6.40;71.10;;;4.90;78.31;98246.03;5058023;28;20527;-79
2021/11/07 09:29:14;;;;;;;18.17;12.83;;;6.40;71.00;;;4.91;78.25;98218.22;5055520;28;20455;-83
2021/11/07 09:31:55;;;;;;;14.00;12.17;;;6.40;71.10;;;5.33;77.02;98233.09;5072583;28;20466;-80
2021/11/07 09:34:33;;;;;;;13.33;11.87;;;6.60;70.80;;;5.71;74.62;98229.66;5053820;28;20462;-81
2021/11/07 09:37:05;;;;;;;14.40;11.40;;;7.00;69.00;;;5.33;75.40;98211.66;5050175;28;20831;-79
2021/11/07 09:39:37;;;;;;;14.17;11.60;;;7.00;68.50;;;5.25;76.83;98239.34;5055757;28;20549;-80
2021/11/07 09:42:29;;;;;;;15.03;11.77;;;6.80;69.10;;;5.32;75.99;98230.59;5051716;28;21360;-79
2021/11/07 09:45:07;;;;;;;13.93;11.90;;;6.80;69.10;;;5.76;75.06;98231.81;5065742;28;20993;-78
2021/11/07 09:47:38;;;;;;;14.30;10.97;;;7.00;68.80;;;5.52;75.00;98178.22;5051640;28;21081;-79
2021/11/07 09:50:11;;;;;;;14.30;10.83;;;7.10;68.70;;;5.78;74.46;98230.63;5052738;28;20450;-78
2021/11/07 09:52:46;;;;;;;13.03;11.60;;;7.10;68.50;;;5.93;73.50;98227.16;5066371;28;20474;-79
2021/11/07 09:55:13;;;;;;;12.23;10.40;;;7.30;67.70;;;5.72;74.09;98225.97;5044875;28;20541;-79
2021/11/07 09:57:42;;;;;;;13.98;12.52;;;7.20;67.50;;;5.98;74.58;98229.28;5063898;28;20483;-74
2021/11/07 10:00:15;;;;;;;12.47;11.17;;;7.20;68.40;;;5.76;73.93;98215.72;5047387;28;20188;-75
2021/11/07 10:02:42;;;;;;;17.10;11.37;;;7.10;67.20;;;5.93;73.20;98205.72;5045026;28;21224;-77
2021/11/07 10:05:16;;;;;;;14.23;12.73;;;7.40;66.80;;;5.73;74.33;98206.19;5046644;28;20455;-78
2021/11/07 10:07:45;;;;;;;14.67;11.63;;;7.20;66.60;;;6.27;73.46;98227.72;5052375;28;20635;-76
2021/11/07 10:10:21;;;;;;;11.93;9.60;;;7.40;67.70;;;6.34;71.21;98226.00;5049523;28;20449;-76
2021/11/07 10:12:51;;;;;;;13.03;10.67;;;7.70;65.60;;;5.94;73.61;98226.16;5051665;28;20449;-76
2021/11/07 10:15:28;;;;;;;12.90;10.80;;;7.40;66.10;;;6.17;73.52;98226.16;5063532;28;20443;-79
2021/11/07 10:18:01;;;;;;;14.57;11.17;;;7.50;66.60;;;6.14;72.82;98221.16;5072947;28;20192;-77
2021/11/07 10:20:33;;;;;;;12.87;10.50;;;7.50;66.20;;;6.27;72.29;98208.94;5054165;28;20472;-79
2021/11/07 10:23:07;;;;;;;12.40;9.83;;;7.50;66.30;;;6.51;71.91;98214.06;5054661;28;20478;-78
2021/11/07 10:25:40;;;;;;;11.93;9.57;;;7.70;66.30;;;6.44;71.28;98196.19;5048373;28;20465;-77
2021/11/07 10:28:17;;;;;;;12.10;10.17;;;7.80;65.60;;;6.50;71.95;98190.94;5053719;28;21074;-76
2021/11/07 10:30:47;;;;;;;11.07;9.97;;;7.90;66.00;;;5.97;74.21;98193.59;5048479;28;20457;-78
2021/11/07 10:33:27;;;;;;;10.47;9.20;;;7.60;66.10;;;6.12;74.06;98187.47;5050737;28;20445;-74
2021/11/07 10:39:16;;;;;;;10.50;9.40;;;7.80;66.90;;;6.66;72.35;98183.69;5054921;28;20485;-73
2021/11/07 10:53:19;;;;;;;7.93;7.13;;;7.40;70.40;;;6.03;78.35;98168.75;5053342;28;20989;-75
2021/11/07 10:55:52;;;;;;;8.50;7.33;;;7.50;70.70;;;6.36;77.54;98173.78;5057752;28;20853;-75
2021/11/07 10:58:27;;;;;;;8.93;6.93;;;7.60;70.60;;;6.31;78.35;98168.13;5057003;28;20471;-74
2021/11/07 11:00:58;;;;;;;8.17;7.37;;;7.60;71.00;;;6.10;80.06;98163.50;5070539;28;20479;-75
2021/11/07 11:03:25;;;;;;;8.90;7.23;;;7.60;72.00;;;6.14;80.50;98154.09;5055174;28;20460;-73
2021/11/07 11:05:58;;;;;;;9.80;7.70;;;7.50;72.60;;;6.06;80.69;98156.84;5037412;28;20470;-73